Terminal Aerodrome Forecast
Issued by NWS Charleston, WV

Current Version | Previous Version | Text Only | Print | Product List | Glossary Off
Versions: 1 2 3 4 5 6 7 8 9 10 11 12 13 14 15 16 17 18 19 20 21 22 23 24 25 26 27 28 29 30 31

000
FTUS41 KRLX 210541
TAFEKN
TAF
KEKN 210541Z 2106/2206 00000KT P6SM SKC
     FM211400 22006KT P6SM FEW030 FEW250
     FM211500 22008G16KT P6SM FEW030 FEW250
     FM212100 23008G14KT P6SM FEW050 SCT200
     FM220200 23006KT P6SM BKN035
     FM220400 24006KT P6SM BKN025=

USA.gov is the U.S. government's official web portal to all federal, state and local government web resources and services.